Hovedside
METAR-TAF:

METAR-TAF

Lufthavner :

Norne Fpso, Norge

Oljeplattform

breddegrad: 66-01-48N, lengdegrad: 008-04-48E, høyde over havet: 10 m

Gjeldene værobservasjon

Denne rapporten ble laget for 24 minutter siden, klokken 13:20 UTC
Vind 18 kt fra Sørøst
Temperatur -2°C
Luftfuktighet 74%
Trykk 1040 hPa
Sikt 10 km eller mer
Brutte skyer i en høyde av 1500 ft

METAR: ENNE 251320Z 13018KT 9999 BKN015 M02/M06 Q1040 W///S/

Tid: 14:44 (13:44 UTC)

Varsel

Denne rapporten ble laget for 58 minutter siden, klokken 12:46 UTC
Varsel gyldig fra 25. klokken 12 UTC til 25. klokken 18 UTC
Vind 20 kt fra Sørøst
Sikt 10 km eller mer
Brutte skyer i en høyde av 1500 ft
Blir
fra 25. klokken 15 UTC til 25. klokken 17 UTC
Spredte skyer i en høyde av 1500 ft

TAF: ENNE 251246Z 2512/2518 13020KT 9999 BKN015 BECMG 2515/2517 SCT015

Værobservasjoner og værvarsel for over 4000 flyplasser (METAR- og TAF-rapporter).

Tilgjengelige stasjoner er representert av de røde og gule prikkene på kartet.

Hold musepekeren over prikken for å se navnet på stasjonen.

Klikk så for å se værobservasjoner og -varsler.

For å forandre kartet kan du klikke på den grønne knappen med svart kryss for å zoome inn, på den grønne knappen med strek for å zoome ut, eller på de grønne pilene for å se tilstøtende kart.


METAR-TAF: